sensor_id;sensor_type;location;lat;lon;timestamp;pressure;altitude;pressure_sealevel;temperature
43802;BMP280;29429;51.074;13.764;2022-10-17T00:00:56;100671.66;;;14.78
43802;BMP280;29429;51.074;13.764;2022-10-17T00:03:23;100667.94;;;14.79
43802;BMP280;29429;51.074;13.764;2022-10-17T00:05:50;100666.94;;;14.80
43802;BMP280;29429;51.074;13.764;2022-10-17T00:08:18;100668.16;;;14.71
43802;BMP280;29429;51.074;13.764;2022-10-17T00:10:59;100660.53;;;14.68
43802;BMP280;29429;51.074;13.764;2022-10-17T00:13:27;100667.97;;;14.66
43802;BMP280;29429;51.074;13.764;2022-10-17T00:15:54;100667.34;;;14.63
43802;BMP280;29429;51.074;13.764;2022-10-17T00:18:21;100676.84;;;14.59
43802;BMP280;29429;51.074;13.764;2022-10-17T00:20:48;100663.84;;;14.56
43802;BMP280;29429;51.074;13.764;2022-10-17T00:23:16;100682.44;;;14.58
43802;BMP280;29429;51.074;13.764;2022-10-17T00:25:43;100680.34;;;14.53
43802;BMP280;29429;51.074;13.764;2022-10-17T00:28:12;100679.94;;;14.56
43802;BMP280;29429;51.074;13.764;2022-10-17T00:30:40;100674.38;;;14.58
43802;BMP280;29429;51.074;13.764;2022-10-17T00:33:07;100665.09;;;14.47
43802;BMP280;29429;51.074;13.764;2022-10-17T00:35:34;100676.44;;;14.49
43802;BMP280;29429;51.074;13.764;2022-10-17T00:38:01;100664.25;;;14.40
43802;BMP280;29429;51.074;13.764;2022-10-17T00:40:28;100660.56;;;14.41
43802;BMP280;29429;51.074;13.764;2022-10-17T00:42:55;100668.59;;;14.41
43802;BMP280;29429;51.074;13.764;2022-10-17T00:45:26;100674.38;;;14.38
43802;BMP280;29429;51.074;13.764;2022-10-17T00:48:02;100678.88;;;14.25
43802;BMP280;29429;51.074;13.764;2022-10-17T00:50:31;100673.72;;;14.23
43802;BMP280;29429;51.074;13.764;2022-10-17T00:53:04;100684.31;;;14.31
43802;BMP280;29429;51.074;13.764;2022-10-17T00:55:47;100670.63;;;14.26
43802;BMP280;29429;51.074;13.764;2022-10-17T00:58:16;100670.03;;;14.24
43802;BMP280;29429;51.074;13.764;2022-10-17T01:00:46;100674.75;;;14.22
43802;BMP280;29429;51.074;13.764;2022-10-17T01:03:14;100684.25;;;14.25
43802;BMP280;29429;51.074;13.764;2022-10-17T01:05:42;100674.13;;;14.20
43802;BMP280;29429;51.074;13.764;2022-10-17T01:08:10;100668.16;;;14.18
43802;BMP280;29429;51.074;13.764;2022-10-17T01:13:45;100672.25;;;14.14
43802;BMP280;29429;51.074;13.764;2022-10-17T01:19:19;100672.06;;;14.02
43802;BMP280;29429;51.074;13.764;2022-10-17T01:22:02;100679.91;;;14.04
43802;BMP280;29429;51.074;13.764;2022-10-17T01:25:02;100679.28;;;14.02
43802;BMP280;29429;51.074;13.764;2022-10-17T01:37:32;100673.06;;;13.82
43802;BMP280;29429;51.074;13.764;2022-10-17T01:40:15;100664.78;;;13.77
43802;BMP280;29429;51.074;13.764;2022-10-17T01:43:20;100683.75;;;13.75
43802;BMP280;29429;51.074;13.764;2022-10-17T01:45:52;100681.28;;;13.74
43802;BMP280;29429;51.074;13.764;2022-10-17T01:48:24;100685.81;;;13.73
43802;BMP280;29429;51.074;13.764;2022-10-17T01:51:05;100689.75;;;13.71
43802;BMP280;29429;51.074;13.764;2022-10-17T01:53:44;100678.78;;;13.72
43802;BMP280;29429;51.074;13.764;2022-10-17T01:56:14;100674.66;;;13.70
43802;BMP280;29429;51.074;13.764;2022-10-17T01:58:50;100667.44;;;13.70
43802;BMP280;29429;51.074;13.764;2022-10-17T02:01:19;100670.09;;;13.64
43802;BMP280;29429;51.074;13.764;2022-10-17T02:03:49;100676.13;;;13.66
43802;BMP280;29429;51.074;13.764;2022-10-17T02:06:17;100657.75;;;13.63
43802;BMP280;29429;51.074;13.764;2022-10-17T02:08:48;100666.41;;;13.65
43802;BMP280;29429;51.074;13.764;2022-10-17T02:11:26;100650.72;;;13.62
43802;BMP280;29429;51.074;13.764;2022-10-17T02:23:12;100654.38;;;13.48
43802;BMP280;29429;51.074;13.764;2022-10-17T02:26:12;100656.88;;;13.56
43802;BMP280;29429;51.074;13.764;2022-10-17T02:29:07;100659.34;;;13.51
43802;BMP280;29429;51.074;13.764;2022-10-17T02:31:44;100662.25;;;13.56
43802;BMP280;29429;51.074;13.764;2022-10-17T02:34:23;100649.88;;;13.55
43802;BMP280;29429;51.074;13.764;2022-10-17T02:36:57;100651.13;;;13.52
43802;BMP280;29429;51.074;13.764;2022-10-17T02:39:27;100657.72;;;13.56
43802;BMP280;29429;51.074;13.764;2022-10-17T02:42:01;100662.25;;;13.56
43802;BMP280;29429;51.074;13.764;2022-10-17T02:44:31;100661.22;;;13.57
43802;BMP280;29429;51.074;13.764;2022-10-17T02:47:26;100672.56;;;13.59
43802;BMP280;29429;51.074;13.764;2022-10-17T02:49:56;100664.91;;;13.56
43802;BMP280;29429;51.074;13.764;2022-10-17T02:55:14;100670.75;;;13.66
43802;BMP280;29429;51.074;13.764;2022-10-17T02:57:54;100668.47;;;13.63
43802;BMP280;29429;51.074;13.764;2022-10-17T03:00:25;100675.47;;;13.64
43802;BMP280;29429;51.074;13.764;2022-10-17T03:02:53;100663.91;;;13.57
43802;BMP280;29429;51.074;13.764;2022-10-17T03:05:27;100672.16;;;13.62
43802;BMP280;29429;51.074;13.764;2022-10-17T03:07:55;100660.59;;;13.55
43802;BMP280;29429;51.074;13.764;2022-10-17T03:10:23;100662.88;;;13.58
43802;BMP280;29429;51.074;13.764;2022-10-17T03:12:51;100663.91;;;13.57
43802;BMP280;29429;51.074;13.764;2022-10-17T03:15:18;100663.28;;;13.55
43802;BMP280;29429;51.074;13.764;2022-10-17T03:17:45;100655.44;;;13.47
43802;BMP280;29429;51.074;13.764;2022-10-17T03:20:12;100661.56;;;13.40
43802;BMP280;29429;51.074;13.764;2022-10-17T03:22:39;100657.84;;;13.35
43802;BMP280;29429;51.074;13.764;2022-10-17T03:25:06;100664.25;;;13.34
43802;BMP280;29429;51.074;13.764;2022-10-17T03:27:35;100666.28;;;13.32
43802;BMP280;29429;51.074;13.764;2022-10-17T03:30:02;100675.16;;;13.32
43802;BMP280;29429;51.074;13.764;2022-10-17T03:32:32;100665.22;;;13.26
43802;BMP280;29429;51.074;13.764;2022-10-17T03:35:00;100673.25;;;13.26
43802;BMP280;29429;51.074;13.764;2022-10-17T03:37:27;100675.16;;;13.32
43802;BMP280;29429;51.074;13.764;2022-10-17T03:39:55;100670.84;;;13.31
43802;BMP280;29429;51.074;13.764;2022-10-17T03:42:22;100677.81;;;13.32
43802;BMP280;29429;51.074;13.764;2022-10-17T03:44:49;100686.25;;;13.29
43802;BMP280;29429;51.074;13.764;2022-10-17T03:47:16;100681.72;;;13.30
43802;BMP280;29429;51.074;13.764;2022-10-17T03:49:44;100679.88;;;13.30
43802;BMP280;29429;51.074;13.764;2022-10-17T03:52:12;100685.88;;;13.32
43802;BMP280;29429;51.074;13.764;2022-10-17T03:54:39;100683.81;;;13.34
43802;BMP280;29429;51.074;13.764;2022-10-17T03:57:07;100685.47;;;13.35
43802;BMP280;29429;51.074;13.764;2022-10-17T03:59:35;100687.13;;;13.36
43802;BMP280;29429;51.074;13.764;2022-10-17T04:02:08;100688.59;;;13.39
43802;BMP280;29429;51.074;13.764;2022-10-17T04:04:35;100686.53;;;13.41
43802;BMP280;29429;51.074;13.764;2022-10-17T04:07:02;100688.59;;;13.46
43802;BMP280;29429;51.074;13.764;2022-10-17T04:09:29;100694.78;;;13.46
43802;BMP280;29429;51.074;13.764;2022-10-17T04:12:19;100699.31;;;13.46
43802;BMP280;29429;51.074;13.764;2022-10-17T04:14:46;100695.63;;;13.47
43802;BMP280;29429;51.074;13.764;2022-10-17T04:17:15;100699.53;;;13.51
43802;BMP280;29429;51.074;13.764;2022-10-17T04:19:43;100707.19;;;13.54
43802;BMP280;29429;51.074;13.764;2022-10-17T04:22:10;100707.41;;;13.59
43802;BMP280;29429;51.074;13.764;2022-10-17T04:24:38;100703.09;;;13.58
43802;BMP280;29429;51.074;13.764;2022-10-17T04:27:25;100700.59;;;13.56
43802;BMP280;29429;51.074;13.764;2022-10-17T04:29:53;100710.94;;;13.59
43802;BMP280;29429;51.074;13.764;2022-10-17T04:32:22;100709.91;;;13.60
43802;BMP280;29429;51.074;13.764;2022-10-17T04:35:05;100707.00;;;13.62
43802;BMP280;29429;51.074;13.764;2022-10-17T04:37:32;100714.88;;;13.63
43802;BMP280;29429;51.074;13.764;2022-10-17T04:40:06;100713.44;;;13.61
43802;BMP280;29429;51.074;13.764;2022-10-17T04:42:34;100713.81;;;13.58
43802;BMP280;29429;51.074;13.764;2022-10-17T04:45:03;100718.53;;;13.56
43802;BMP280;29429;51.074;13.764;2022-10-17T04:47:31;100719.97;;;13.52
43802;BMP280;29429;51.074;13.764;2022-10-17T04:49:58;100723.47;;;13.52
43802;BMP280;29429;51.074;13.764;2022-10-17T04:52:26;100723.66;;;13.51
43802;BMP280;29429;51.074;13.764;2022-10-17T04:54:53;100722.88;;;13.50
43802;BMP280;29429;51.074;13.764;2022-10-17T04:57:20;100726.97;;;13.46
43802;BMP280;29429;51.074;13.764;2022-10-17T05:00:04;100730.03;;;13.43
43802;BMP280;29429;51.074;13.764;2022-10-17T05:02:56;100722.38;;;13.40
43802;BMP280;29429;51.074;13.764;2022-10-17T05:05:22;100729.81;;;13.38
43802;BMP280;29429;51.074;13.764;2022-10-17T05:07:53;100733.94;;;13.40
43802;BMP280;29429;51.074;13.764;2022-10-17T05:10:24;100726.50;;;13.36
43802;BMP280;29429;51.074;13.764;2022-10-17T05:12:52;100738.84;;;13.30
43802;BMP280;29429;51.074;13.764;2022-10-17T05:15:22;100738.00;;;13.30
43802;BMP280;29429;51.074;13.764;2022-10-17T05:17:56;100741.72;;;13.29
43802;BMP280;29429;51.074;13.764;2022-10-17T05:20:26;100741.06;;;13.27
43802;BMP280;29429;51.074;13.764;2022-10-17T05:22:53;100737.78;;;13.25
43802;BMP280;29429;51.074;13.764;2022-10-17T05:25:20;100734.88;;;13.26
43802;BMP280;29429;51.074;13.764;2022-10-17T05:27:48;100744.97;;;13.24
43802;BMP280;29429;51.074;13.764;2022-10-17T05:30:17;100746.19;;;13.22
43802;BMP280;29429;51.074;13.764;2022-10-17T05:32:44;100746.41;;;13.20
43802;BMP280;29429;51.074;13.764;2022-10-17T05:35:11;100751.78;;;13.20
43802;BMP280;29429;51.074;13.764;2022-10-17T05:37:38;100743.50;;;13.15
43802;BMP280;29429;51.074;13.764;2022-10-17T05:40:06;100752.59;;;13.21
43802;BMP280;29429;51.074;13.764;2022-10-17T05:42:33;100750.09;;;13.19
43802;BMP280;29429;51.074;13.764;2022-10-17T05:45:01;100758.59;;;13.23
43802;BMP280;29429;51.074;13.764;2022-10-17T05:47:29;100756.53;;;13.25
43802;BMP280;29429;51.074;13.764;2022-10-17T05:49:57;100756.13;;;13.28
43802;BMP280;29429;51.074;13.764;2022-10-17T05:52:36;100755.94;;;13.29
43802;BMP280;29429;51.074;13.764;2022-10-17T05:55:09;100772.22;;;13.34
43802;BMP280;29429;51.074;13.764;2022-10-17T05:57:36;100765.03;;;13.35
43802;BMP280;29429;51.074;13.764;2022-10-17T06:00:25;100755.13;;;13.35
43802;BMP280;29429;51.074;13.764;2022-10-17T06:02:56;100756.41;;;13.39
43802;BMP280;29429;51.074;13.764;2022-10-17T06:05:23;100769.00;;;13.46
43802;BMP280;29429;51.074;13.764;2022-10-17T06:07:51;100763.66;;;13.46
43802;BMP280;29429;51.074;13.764;2022-10-17T06:10:24;100760.78;;;13.54
43802;BMP280;29429;51.074;13.764;2022-10-17T06:12:51;100770.28;;;13.56
43802;BMP280;29429;51.074;13.764;2022-10-17T06:15:19;100775.09;;;13.61
43802;BMP280;29429;51.074;13.764;2022-10-17T06:17:53;100779.84;;;13.65
43802;BMP280;29429;51.074;13.764;2022-10-17T06:20:20;100762.53;;;13.68
43802;BMP280;29429;51.074;13.764;2022-10-17T06:22:47;100781.75;;;13.78
43802;BMP280;29429;51.074;13.764;2022-10-17T06:25:22;100789.41;;;13.87
43802;BMP280;29429;51.074;13.764;2022-10-17T06:27:50;100790.28;;;13.94
43802;BMP280;29429;51.074;13.764;2022-10-17T06:30:17;100787.59;;;14.01
43802;BMP280;29429;51.074;13.764;2022-10-17T06:32:44;100792.19;;;14.07
43802;BMP280;29429;51.074;13.764;2022-10-17T06:35:11;100795.69;;;14.14
43802;BMP280;29429;51.074;13.764;2022-10-17T06:37:40;100796.34;;;14.23
43802;BMP280;29429;51.074;13.764;2022-10-17T06:40:08;100800.06;;;14.28
43802;BMP280;29429;51.074;13.764;2022-10-17T06:42:38;100799.09;;;14.36
43802;BMP280;29429;51.074;13.764;2022-10-17T06:45:24;100797.84;;;14.38
43802;BMP280;29429;51.074;13.764;2022-10-17T06:48:07;100807.78;;;14.51
43802;BMP280;29429;51.074;13.764;2022-10-17T06:51:03;100800.78;;;14.56
43802;BMP280;29429;51.074;13.764;2022-10-17T06:53:37;100802.84;;;14.54
43802;BMP280;29429;51.074;13.764;2022-10-17T06:56:23;100811.09;;;14.59
43802;BMP280;29429;51.074;13.764;2022-10-17T06:59:19;100814.84;;;14.72
43802;BMP280;29429;51.074;13.764;2022-10-17T07:01:51;100826.63;;;14.84
43802;BMP280;29429;51.074;13.764;2022-10-17T07:04:18;100816.09;;;14.89
43802;BMP280;29429;51.074;13.764;2022-10-17T07:06:45;100821.25;;;14.97
43802;BMP280;29429;51.074;13.764;2022-10-17T07:09:18;100830.97;;;15.04
43802;BMP280;29429;51.074;13.764;2022-10-17T07:11:45;100829.09;;;15.18
43802;BMP280;29429;51.074;13.764;2022-10-17T07:14:16;100824.75;;;15.23
43802;BMP280;29429;51.074;13.764;2022-10-17T07:16:42;100835.09;;;15.33
43802;BMP280;29429;51.074;13.764;2022-10-17T07:19:17;100837.16;;;15.38
43802;BMP280;29429;51.074;13.764;2022-10-17T07:21:44;100843.16;;;15.46
43802;BMP280;29429;51.074;13.764;2022-10-17T07:24:11;100835.31;;;15.51
43802;BMP280;29429;51.074;13.764;2022-10-17T07:26:41;100842.09;;;15.60
43802;BMP280;29429;51.074;13.764;2022-10-17T07:29:09;100831.53;;;15.65
43802;BMP280;29429;51.074;13.764;2022-10-17T07:31:41;100836.50;;;15.75
43802;BMP280;29429;51.074;13.764;2022-10-17T07:34:08;100837.91;;;15.84
43802;BMP280;29429;51.074;13.764;2022-10-17T07:36:35;100837.91;;;15.91
43802;BMP280;29429;51.074;13.764;2022-10-17T07:39:04;100846.94;;;16.03
43802;BMP280;29429;51.074;13.764;2022-10-17T07:41:32;100844.00;;;16.11
43802;BMP280;29429;51.074;13.764;2022-10-17T07:43:59;100851.84;;;16.19
43802;BMP280;29429;51.074;13.764;2022-10-17T07:46:31;100844.34;;;16.27
43802;BMP280;29429;51.074;13.764;2022-10-17T07:48:58;100847.00;;;16.34
43802;BMP280;29429;51.074;13.764;2022-10-17T07:51:25;100850.50;;;16.41
43802;BMP280;29429;51.074;13.764;2022-10-17T07:53:53;100847.97;;;16.53
43802;BMP280;29429;51.074;13.764;2022-10-17T07:56:20;100854.16;;;16.60
43802;BMP280;29429;51.074;13.764;2022-10-17T07:58:51;100853.69;;;16.69
43802;BMP280;29429;51.074;13.764;2022-10-17T08:01:18;100851.13;;;16.81
43802;BMP280;29429;51.074;13.764;2022-10-17T08:03:46;100845.22;;;16.90
43802;BMP280;29429;51.074;13.764;2022-10-17T08:06:14;100847.66;;;16.98
43802;BMP280;29429;51.074;13.764;2022-10-17T08:08:42;100852.53;;;17.08
43802;BMP280;29429;51.074;13.764;2022-10-17T08:11:10;100841.50;;;17.16
43802;BMP280;29429;51.074;13.764;2022-10-17T08:13:38;100836.66;;;17.25
43802;BMP280;29429;51.074;13.764;2022-10-17T08:16:08;100844.03;;;17.36
43802;BMP280;29429;51.074;13.764;2022-10-17T08:18:37;100846.00;;;17.47
43802;BMP280;29429;51.074;13.764;2022-10-17T08:21:05;100846.78;;;17.54
43802;BMP280;29429;51.074;13.764;2022-10-17T08:23:34;100843.34;;;17.65
43802;BMP280;29429;51.074;13.764;2022-10-17T08:26:03;100843.88;;;17.74
43802;BMP280;29429;51.074;13.764;2022-10-17T08:28:34;100842.91;;;17.86
43802;BMP280;29429;51.074;13.764;2022-10-17T08:31:03;100846.13;;;17.95
43802;BMP280;29429;51.074;13.764;2022-10-17T08:33:30;100839.59;;;18.02
43802;BMP280;29429;51.074;13.764;2022-10-17T08:35:59;100846.56;;;18.10
43802;BMP280;29429;51.074;13.764;2022-10-17T08:38:30;100841.06;;;18.16
43802;BMP280;29429;51.074;13.764;2022-10-17T08:41:12;100841.81;;;18.23
43802;BMP280;29429;51.074;13.764;2022-10-17T08:46:45;100838.34;;;18.35
43802;BMP280;29429;51.074;13.764;2022-10-17T08:49:44;100835.28;;;18.43
43802;BMP280;29429;51.074;13.764;2022-10-17T08:55:16;100838.09;;;18.54
43802;BMP280;29429;51.074;13.764;2022-10-17T08:57:46;100840.72;;;18.61
43802;BMP280;29429;51.074;13.764;2022-10-17T09:00:18;100844.13;;;18.68
43802;BMP280;29429;51.074;13.764;2022-10-17T09:08:10;100839.69;;;18.85
43802;BMP280;29429;51.074;13.764;2022-10-17T09:11:00;100831.72;;;18.90
43802;BMP280;29429;51.074;13.764;2022-10-17T09:13:39;100832.06;;;18.94
43802;BMP280;29429;51.074;13.764;2022-10-17T09:16:19;100834.56;;;18.95
43802;BMP280;29429;51.074;13.764;2022-10-17T09:18:59;100833.59;;;19.01
43802;BMP280;29429;51.074;13.764;2022-10-17T09:21:45;100831.72;;;19.02
43802;BMP280;29429;51.074;13.764;2022-10-17T09:24:19;100827.16;;;19.02
43802;BMP280;29429;51.074;13.764;2022-10-17T09:26:51;100833.97;;;19.05
43802;BMP280;29429;51.074;13.764;2022-10-17T09:29:25;100836.44;;;19.06
43802;BMP280;29429;51.074;13.764;2022-10-17T09:32:02;100824.44;;;19.02
43802;BMP280;29429;51.074;13.764;2022-10-17T09:34:31;100825.03;;;19.04
43802;BMP280;29429;51.074;13.764;2022-10-17T09:36:59;100835.84;;;19.04
43802;BMP280;29429;51.074;13.764;2022-10-17T09:39:27;100827.16;;;19.02
43802;BMP280;29429;51.074;13.764;2022-10-17T09:42:00;100829.28;;;19.00
43802;BMP280;29429;51.074;13.764;2022-10-17T09:44:34;100831.28;;;19.05
43802;BMP280;29429;51.074;13.764;2022-10-17T09:49:47;100830.94;;;19.13
43802;BMP280;29429;51.074;13.764;2022-10-17T09:52:26;100826.34;;;19.13
43802;BMP280;29429;51.074;13.764;2022-10-17T09:55:14;100832.34;;;19.15
43802;BMP280;29429;51.074;13.764;2022-10-17T09:58:01;100819.75;;;19.21
43802;BMP280;29429;51.074;13.764;2022-10-17T10:00:53;100824.13;;;19.22
43802;BMP280;29429;51.074;13.764;2022-10-17T10:06:05;100831.91;;;19.30
43802;BMP280;29429;51.074;13.764;2022-10-17T10:08:34;100826.81;;;19.33
43802;BMP280;29429;51.074;13.764;2022-10-17T10:11:07;100826.34;;;19.36
43802;BMP280;29429;51.074;13.764;2022-10-17T10:13:39;100820.25;;;19.41
43802;BMP280;29429;51.074;13.764;2022-10-17T10:16:16;100829.56;;;19.45
43802;BMP280;29429;51.074;13.764;2022-10-17T10:18:43;100820.97;;;19.48
43802;BMP280;29429;51.074;13.764;2022-10-17T10:21:16;100826.03;;;19.56
43802;BMP280;29429;51.074;13.764;2022-10-17T10:24:03;100828.59;;;19.63
43802;BMP280;29429;51.074;13.764;2022-10-17T10:31:49;100821.78;;;19.72
43802;BMP280;29429;51.074;13.764;2022-10-17T10:34:28;100827.28;;;19.77
43802;BMP280;29429;51.074;13.764;2022-10-17T10:37:00;100829.28;;;19.81
43802;BMP280;29429;51.074;13.764;2022-10-17T10:39:35;100830.22;;;19.87
43802;BMP280;29429;51.074;13.764;2022-10-17T10:42:05;100813.97;;;19.87
43802;BMP280;29429;51.074;13.764;2022-10-17T10:44:35;100804.06;;;19.92
43802;BMP280;29429;51.074;13.764;2022-10-17T10:49:41;100803.69;;;20.00
43802;BMP280;29429;51.074;13.764;2022-10-17T10:52:16;100790.97;;;20.01
43802;BMP280;29429;51.074;13.764;2022-10-17T10:54:53;100801.31;;;20.04
43802;BMP280;29429;51.074;13.764;2022-10-17T10:57:23;100807.63;;;20.10
43802;BMP280;29429;51.074;13.764;2022-10-17T11:00:03;100806.09;;;20.14
43802;BMP280;29429;51.074;13.764;2022-10-17T11:05:21;100813.03;;;20.21
43802;BMP280;29429;51.074;13.764;2022-10-17T11:08:13;100807.72;;;20.26
43802;BMP280;29429;51.074;13.764;2022-10-17T11:11:05;100810.78;;;20.30
43802;BMP280;29429;51.074;13.764;2022-10-17T11:13:40;100805.69;;;20.33
43802;BMP280;29429;51.074;13.764;2022-10-17T11:19:10;100811.78;;;20.40
43802;BMP280;29429;51.074;13.764;2022-10-17T11:21:50;100803.41;;;20.42
43802;BMP280;29429;51.074;13.764;2022-10-17T11:24:39;100801.28;;;20.44
43802;BMP280;29429;51.074;13.764;2022-10-17T11:27:08;100795.38;;;20.47
43802;BMP280;29429;51.074;13.764;2022-10-17T11:29:40;100784.03;;;20.50
43802;BMP280;29429;51.074;13.764;2022-10-17T11:32:12;100781.91;;;20.52
43802;BMP280;29429;51.074;13.764;2022-10-17T11:34:43;100787.66;;;20.55
43802;BMP280;29429;51.074;13.764;2022-10-17T11:37:15;100779.38;;;20.62
43802;BMP280;29429;51.074;13.764;2022-10-17T11:39:50;100780.88;;;20.70
43802;BMP280;29429;51.074;13.764;2022-10-17T11:42:22;100776.59;;;20.74
43802;BMP280;29429;51.074;13.764;2022-10-17T11:44:54;100779.91;;;20.76
43802;BMP280;29429;51.074;13.764;2022-10-17T11:47:42;100780.47;;;20.78
43802;BMP280;29429;51.074;13.764;2022-10-17T11:50:30;100775.03;;;20.78
43802;BMP280;29429;51.074;13.764;2022-10-17T11:53:23;100761.00;;;20.81
43802;BMP280;29429;51.074;13.764;2022-10-17T11:55:52;100751.03;;;20.86
43802;BMP280;29429;51.074;13.764;2022-10-17T11:58:38;100747.81;;;20.89
43802;BMP280;29429;51.074;13.764;2022-10-17T12:06:23;100742.75;;;21.09
43802;BMP280;29429;51.074;13.764;2022-10-17T12:14:38;100729.13;;;21.26
43802;BMP280;29429;51.074;13.764;2022-10-17T12:22:48;100707.03;;;21.61
43802;BMP280;29429;51.074;13.764;2022-10-17T12:25:35;100703.69;;;21.75
43802;BMP280;29429;51.074;13.764;2022-10-17T12:31:00;100700.19;;;22.02
43802;BMP280;29429;51.074;13.764;2022-10-17T13:00:42;100666.69;;;22.55
43802;BMP280;29429;51.074;13.764;2022-10-17T13:03:33;100680.03;;;22.61
43802;BMP280;29429;51.074;13.764;2022-10-17T13:06:06;100678.41;;;22.60
43802;BMP280;29429;51.074;13.764;2022-10-17T13:08:38;100683.84;;;22.60
43802;BMP280;29429;51.074;13.764;2022-10-17T13:11:08;100679.41;;;22.49
43802;BMP280;29429;51.074;13.764;2022-10-17T13:13:45;100681.06;;;22.50
43802;BMP280;29429;51.074;13.764;2022-10-17T13:16:37;100686.19;;;22.47
43802;BMP280;29429;51.074;13.764;2022-10-17T13:19:13;100690.78;;;22.41
43802;BMP280;29429;51.074;13.764;2022-10-17T13:21:54;100683.13;;;22.38
43802;BMP280;29429;51.074;13.764;2022-10-17T13:24:34;100695.84;;;22.32
43802;BMP280;29429;51.074;13.764;2022-10-17T13:27:02;100684.06;;;22.22
43802;BMP280;29429;51.074;13.764;2022-10-17T13:29:29;100685.63;;;22.13
43802;BMP280;29429;51.074;13.764;2022-10-17T13:31:59;100694.91;;;22.17
43802;BMP280;29429;51.074;13.764;2022-10-17T13:34:27;100682.88;;;22.08
43802;BMP280;29429;51.074;13.764;2022-10-17T13:36:56;100691.25;;;22.06
43802;BMP280;29429;51.074;13.764;2022-10-17T13:39:26;100684.91;;;21.96
43802;BMP280;29429;51.074;13.764;2022-10-17T13:42:37;100688.13;;;21.93
43802;BMP280;29429;51.074;13.764;2022-10-17T13:45:15;100686.94;;;21.83
43802;BMP280;29429;51.074;13.764;2022-10-17T13:47:43;100679.03;;;21.82
43802;BMP280;29429;51.074;13.764;2022-10-17T13:50:32;100683.66;;;21.81
43802;BMP280;29429;51.074;13.764;2022-10-17T13:53:17;100689.59;;;21.78
43802;BMP280;29429;51.074;13.764;2022-10-17T13:56:16;100691.13;;;21.69
43802;BMP280;29429;51.074;13.764;2022-10-17T13:58:56;100695.09;;;21.62
43802;BMP280;29429;51.074;13.764;2022-10-17T14:01:26;100685.69;;;21.48
43802;BMP280;29429;51.074;13.764;2022-10-17T14:03:54;100695.81;;;21.52
43802;BMP280;29429;51.074;13.764;2022-10-17T14:06:39;100688.13;;;21.44
43802;BMP280;29429;51.074;13.764;2022-10-17T14:09:29;100699.47;;;21.41
43802;BMP280;29429;51.074;13.764;2022-10-17T14:12:02;100702.38;;;21.35
43802;BMP280;29429;51.074;13.764;2022-10-17T14:14:34;100698.25;;;21.32
43802;BMP280;29429;51.074;13.764;2022-10-17T14:17:26;100694.41;;;21.28
43802;BMP280;29429;51.074;13.764;2022-10-17T14:20:04;100690.50;;;21.19
43802;BMP280;29429;51.074;13.764;2022-10-17T14:22:51;100686.88;;;21.13
43802;BMP280;29429;51.074;13.764;2022-10-17T14:25:39;100690.41;;;21.14
43802;BMP280;29429;51.074;13.764;2022-10-17T14:30:46;100690.34;;;21.09
43802;BMP280;29429;51.074;13.764;2022-10-17T14:33:29;100677.69;;;20.98
43802;BMP280;29429;51.074;13.764;2022-10-17T14:35:58;100680.00;;;20.89
43802;BMP280;29429;51.074;13.764;2022-10-17T14:38:27;100703.50;;;21.00
43802;BMP280;29429;51.074;13.764;2022-10-17T14:41:00;100693.06;;;20.92
43802;BMP280;29429;51.074;13.764;2022-10-17T14:43:57;100699.56;;;20.91
43802;BMP280;29429;51.074;13.764;2022-10-17T14:46:25;100699.25;;;20.88
43802;BMP280;29429;51.074;13.764;2022-10-17T14:49:02;100704.66;;;20.88
43802;BMP280;29429;51.074;13.764;2022-10-17T14:51:33;100677.56;;;20.71
43802;BMP280;29429;51.074;13.764;2022-10-17T14:54:22;100699.94;;;20.78
43802;BMP280;29429;51.074;13.764;2022-10-17T14:56:51;100684.78;;;20.65
43802;BMP280;29429;51.074;13.764;2022-10-17T14:59:19;100695.91;;;20.64
43802;BMP280;29429;51.074;13.764;2022-10-17T15:02:10;100693.34;;;20.57
43802;BMP280;29429;51.074;13.764;2022-10-17T15:04:37;100706.97;;;20.62
43802;BMP280;29429;51.074;13.764;2022-10-17T15:07:04;100711.66;;;20.50
43802;BMP280;29429;51.074;13.764;2022-10-17T15:09:31;100714.88;;;20.47
43802;BMP280;29429;51.074;13.764;2022-10-17T15:12:01;100731.13;;;20.47
43802;BMP280;29429;51.074;13.764;2022-10-17T15:14:31;100734.25;;;20.39
43802;BMP280;29429;51.074;13.764;2022-10-17T15:16:59;100723.16;;;20.24
43802;BMP280;29429;51.074;13.764;2022-10-17T15:19:26;100744.91;;;20.29
43802;BMP280;29429;51.074;13.764;2022-10-17T15:21:53;100737.88;;;20.17
43802;BMP280;29429;51.074;13.764;2022-10-17T15:24:20;100733.16;;;20.12
43802;BMP280;29429;51.074;13.764;2022-10-17T15:26:47;100741.56;;;20.11
43802;BMP280;29429;51.074;13.764;2022-10-17T15:29:15;100714.31;;;19.89
43802;BMP280;29429;51.074;13.764;2022-10-17T15:31:44;100736.09;;;19.94
43802;BMP280;29429;51.074;13.764;2022-10-17T15:34:11;100739.28;;;19.91
43802;BMP280;29429;51.074;13.764;2022-10-17T15:36:40;100738.84;;;19.82
43802;BMP280;29429;51.074;13.764;2022-10-17T15:39:08;100754.28;;;19.82
43802;BMP280;29429;51.074;13.764;2022-10-17T15:41:35;100757.09;;;19.75
43802;BMP280;29429;51.074;13.764;2022-10-17T15:44:02;100756.69;;;19.67
43802;BMP280;29429;51.074;13.764;2022-10-17T15:46:32;100762.91;;;19.67
43802;BMP280;29429;51.074;13.764;2022-10-17T15:49:04;100748.22;;;19.52
43802;BMP280;29429;51.074;13.764;2022-10-17T15:51:33;100766.59;;;19.50
43802;BMP280;29429;51.074;13.764;2022-10-17T15:54:00;100761.31;;;19.43
43802;BMP280;29429;51.074;13.764;2022-10-17T15:56:29;100765.16;;;19.35
43802;BMP280;29429;51.074;13.764;2022-10-17T15:58:57;100758.22;;;19.28
43802;BMP280;29429;51.074;13.764;2022-10-17T16:01:26;100766.81;;;19.25
43802;BMP280;29429;51.074;13.764;2022-10-17T16:03:54;100744.38;;;19.13